createdAt,value
2017-09-10T00:00:22.694Z,99.99
2017-09-10T00:01:31.546Z,99.99
2017-09-10T00:02:40.397Z,99.99
2017-09-10T00:03:49.244Z,99.99
2017-09-10T00:04:58.093Z,99.99
2017-09-10T00:06:06.940Z,99.99
2017-09-10T00:07:15.793Z,99.99
2017-09-10T00:08:24.963Z,99.99
2017-09-10T00:09:33.812Z,99.99
2017-09-10T00:10:42.661Z,99.99
2017-09-10T00:11:51.512Z,99.99
2017-09-10T00:13:00.359Z,99.99
2017-09-10T00:14:09.206Z,99.99
2017-09-10T00:15:18.060Z,99.99
2017-09-10T00:16:26.913Z,99.99
2017-09-10T00:17:35.759Z,99.99
2017-09-10T00:18:44.607Z,99.99
2017-09-10T00:19:53.455Z,99.99
2017-09-10T00:21:02.301Z,99.99
2017-09-10T00:22:11.152Z,99.99
2017-09-10T00:23:20.003Z,99.99
2017-09-10T00:24:28.851Z,99.99
2017-09-10T00:25:37.702Z,99.99
2017-09-10T00:26:46.547Z,99.99
2017-09-10T00:27:55.399Z,99.99
2017-09-10T00:29:04.252Z,99.99
2017-09-10T00:30:13.100Z,99.99
2017-09-10T00:31:21.945Z,99.99
2017-09-10T00:32:30.794Z,99.99
2017-09-10T00:33:39.964Z,99.99
2017-09-10T00:34:48.812Z,99.99
2017-09-10T00:35:57.664Z,99.99
2017-09-10T00:37:06.512Z,99.99
2017-09-10T00:38:15.360Z,99.99
2017-09-10T00:39:24.207Z,99.99
2017-09-10T00:40:33.413Z,99.99
2017-09-10T00:41:42.261Z,99.99
2017-09-10T00:42:51.109Z,99.99
2017-09-10T00:44:00.286Z,99.99
2017-09-10T00:45:09.131Z,99.99
2017-09-10T00:46:17.981Z,99.99
2017-09-10T00:47:26.830Z,99.99
2017-09-10T00:48:35.677Z,99.99
2017-09-10T00:49:44.553Z,99.99
2017-09-10T00:50:53.372Z,99.99
2017-09-10T00:52:02.223Z,99.99
2017-09-10T00:53:11.068Z,99.99
2017-09-10T00:54:19.917Z,99.99
2017-09-10T00:55:28.762Z,99.99
2017-09-10T00:56:37.612Z,99.99
2017-09-10T00:57:46.461Z,99.99
2017-09-10T00:58:55.312Z,99.99
2017-09-10T01:00:04.160Z,99.99
2017-09-10T01:01:13.010Z,99.99
2017-09-10T01:02:21.858Z,99.99
2017-09-10T01:03:30.709Z,99.99
2017-09-10T01:04:39.560Z,99.99
2017-09-10T01:05:48.407Z,99.99
2017-09-10T01:06:57.253Z,99.99
2017-09-10T01:08:06.103Z,99.99
2017-09-10T01:09:14.953Z,99.99
2017-09-10T01:10:23.801Z,99.99
2017-09-10T01:11:32.650Z,99.99
2017-09-10T01:12:41.496Z,99.99
2017-09-10T01:13:50.346Z,99.99
2017-09-10T01:14:59.193Z,99.99
2017-09-10T01:16:08.042Z,99.99
2017-09-10T01:17:16.891Z,99.99
2017-09-10T01:18:25.737Z,99.99
2017-09-10T01:19:34.587Z,99.99
2017-09-10T01:20:43.439Z,99.99
2017-09-10T01:21:52.284Z,99.99
2017-09-10T01:23:01.134Z,99.99
2017-09-10T01:24:09.977Z,99.99
2017-09-10T01:25:18.827Z,99.99
2017-09-10T01:26:27.678Z,99.99
2017-09-10T01:27:36.523Z,99.99
2017-09-10T01:28:45.370Z,99.99
2017-09-10T01:29:54.220Z,99.99
2017-09-10T01:31:03.067Z,99.99
2017-09-10T01:32:11.912Z,99.99
2017-09-10T01:33:21.088Z,99.99
2017-09-10T01:34:29.938Z,99.99
2017-09-10T01:35:38.785Z,99.99
2017-09-10T01:36:47.631Z,99.99
2017-09-10T01:37:56.481Z,99.99
2017-09-10T01:39:05.331Z,99.99
2017-09-10T01:40:14.180Z,99.99
2017-09-10T01:41:23.025Z,99.99
2017-09-10T01:42:31.872Z,99.99
2017-09-10T01:43:40.720Z,99.99
2017-09-10T01:44:49.569Z,99.99
2017-09-10T01:45:58.415Z,99.99
2017-09-10T01:47:07.264Z,99.99
2017-09-10T01:48:16.114Z,99.99
2017-09-10T01:49:24.960Z,99.99
2017-09-10T01:50:33.804Z,99.99
2017-09-10T01:51:42.655Z,99.99
2017-09-10T01:52:51.504Z,99.99
2017-09-10T01:54:00.350Z,99.99
2017-09-10T01:55:09.201Z,99.99
2017-09-10T01:56:18.048Z,99.99
2017-09-10T01:57:26.893Z,99.99
2017-09-10T01:58:35.744Z,99.99
2017-09-10T01:59:44.593Z,99.99
2017-09-10T02:00:53.441Z,99.99
2017-09-10T02:02:02.290Z,99.99
2017-09-10T02:03:11.137Z,99.99
2017-09-10T02:04:19.983Z,99.99
2017-09-10T02:05:28.831Z,99.99
2017-09-10T02:06:37.681Z,99.99
2017-09-10T02:07:46.528Z,99.99
2017-09-10T02:08:55.378Z,99.99
2017-09-10T02:10:04.224Z,99.99
2017-09-10T02:11:13.072Z,99.99
2017-09-10T02:12:21.921Z,99.99
2017-09-10T02:13:30.770Z,99.99
2017-09-10T02:14:39.618Z,99.99
2017-09-10T02:15:48.787Z,99.99
2017-09-10T02:16:57.633Z,99.99
2017-09-10T02:18:06.483Z,99.99
2017-09-10T02:19:15.331Z,99.99
2017-09-10T02:20:24.179Z,99.99
2017-09-10T02:21:33.023Z,99.99
2017-09-10T02:22:41.872Z,99.99
2017-09-10T02:23:50.717Z,99.99
2017-09-10T02:24:59.893Z,99.99
2017-09-10T02:26:08.745Z,99.99
2017-09-10T02:27:17.595Z,99.99
2017-09-10T02:28:26.440Z,99.99
2017-09-10T02:29:35.288Z,99.99
2017-09-10T02:30:44.136Z,99.99
2017-09-10T02:31:52.981Z,99.99
2017-09-10T02:33:01.830Z,99.99
2017-09-10T02:34:10.680Z,99.99
2017-09-10T02:35:19.526Z,99.99
2017-09-10T02:36:28.374Z,99.99
2017-09-10T02:37:37.222Z,99.99
2017-09-10T02:38:46.067Z,99.99
2017-09-10T02:39:54.919Z,99.99
2017-09-10T02:41:03.769Z,99.99
2017-09-10T02:42:12.614Z,99.99
2017-09-10T02:43:21.461Z,99.99
2017-09-10T02:44:30.314Z,99.99
2017-09-10T02:45:39.163Z,99.99
2017-09-10T02:46:48.011Z,99.99
2017-09-10T02:47:56.863Z,99.99
2017-09-10T02:49:05.708Z,99.99
2017-09-10T02:50:14.558Z,99.99
2017-09-10T02:51:23.408Z,99.99
2017-09-10T02:52:32.579Z,99.99
2017-09-10T02:53:41.426Z,99.99
2017-09-10T02:54:50.275Z,99.99
2017-09-10T02:55:59.123Z,99.99
2017-09-10T02:57:07.968Z,99.99
2017-09-10T02:58:16.817Z,99.99
2017-09-10T02:59:25.666Z,99.99
2017-09-10T03:00:34.516Z,99.99
2017-09-10T03:01:43.364Z,99.99
2017-09-10T03:02:52.197Z,99.99
2017-09-10T03:04:01.023Z,99.99
2017-09-10T03:05:09.852Z,99.99
2017-09-10T03:06:18.681Z,99.99
2017-09-10T03:07:27.512Z,99.99
2017-09-10T03:08:36.336Z,99.99
2017-09-10T03:09:45.161Z,99.99
2017-09-10T03:10:53.993Z,99.99
2017-09-10T03:12:02.821Z,99.99
2017-09-10T03:13:11.973Z,99.99
2017-09-10T03:14:20.799Z,99.99
2017-09-10T03:15:29.628Z,99.99
2017-09-10T03:16:38.451Z,99.99
2017-09-10T03:17:47.280Z,99.99
2017-09-10T03:18:56.104Z,99.99
2017-09-10T03:20:04.935Z,99.99
2017-09-10T03:21:13.766Z,99.99
2017-09-10T03:22:22.599Z,99.99
2017-09-10T03:23:31.776Z,99.99
2017-09-10T03:24:40.574Z,99.99
2017-09-10T03:25:49.398Z,99.99
2017-09-10T03:26:58.223Z,99.99
2017-09-10T03:28:07.055Z,99.99
2017-09-10T03:29:15.880Z,99.99
2017-09-10T03:30:24.709Z,99.99
2017-09-10T03:31:33.541Z,99.99
2017-09-10T03:32:42.369Z,99.99
2017-09-10T03:33:51.196Z,99.99
2017-09-10T03:35:00.345Z,99.99
2017-09-10T03:36:09.173Z,99.99
2017-09-10T03:37:18.001Z,99.99
2017-09-10T03:38:26.834Z,99.99
2017-09-10T03:39:35.662Z,99.99
2017-09-10T03:40:44.488Z,99.99
2017-09-10T03:41:53.316Z,99.99
2017-09-10T03:43:02.147Z,99.99
2017-09-10T03:44:10.977Z,99.99
2017-09-10T03:45:19.805Z,99.99
2017-09-10T03:46:28.633Z,99.99
2017-09-10T03:47:37.454Z,99.99
2017-09-10T03:48:46.286Z,99.99
2017-09-10T03:49:55.116Z,99.99
2017-09-10T03:51:03.944Z,99.99
2017-09-10T03:52:12.771Z,99.99
2017-09-10T03:53:21.595Z,99.99
2017-09-10T03:54:30.423Z,99.99
2017-09-10T03:55:39.256Z,99.99
2017-09-10T03:56:48.083Z,99.99
2017-09-10T03:57:56.909Z,99.99
2017-09-10T03:59:05.734Z,99.99
2017-09-10T04:00:14.557Z,99.99
2017-09-10T04:01:23.430Z,99.99
2017-09-10T04:02:32.261Z,99.99
2017-09-10T04:03:41.093Z,99.99
2017-09-10T04:04:49.923Z,99.99
2017-09-10T04:05:58.749Z,99.99
2017-09-10T04:07:07.576Z,99.99
2017-09-10T04:08:16.401Z,99.99
2017-09-10T04:09:25.230Z,99.99
2017-09-10T04:10:34.061Z,99.99
2017-09-10T04:11:42.893Z,99.99
2017-09-10T04:12:51.721Z,99.99
2017-09-10T04:14:00.549Z,99.99
2017-09-10T04:15:09.376Z,99.99
2017-09-10T04:16:18.206Z,99.99
2017-09-10T04:17:27.038Z,99.99
2017-09-10T04:18:35.872Z,99.99
2017-09-10T04:19:44.696Z,99.99
2017-09-10T04:20:53.527Z,99.99
2017-09-10T04:22:02.351Z,99.99
2017-09-10T04:23:11.181Z,99.99
2017-09-10T04:24:20.013Z,99.99
2017-09-10T04:25:28.847Z,99.99
2017-09-10T04:26:37.672Z,99.99
2017-09-10T04:27:46.504Z,99.99
2017-09-10T04:28:55.334Z,99.99
2017-09-10T04:30:04.165Z,99.99
2017-09-10T04:31:12.997Z,99.99
2017-09-10T04:32:21.823Z,99.99
2017-09-10T04:33:30.650Z,99.99
2017-09-10T04:34:39.484Z,99.99
2017-09-10T04:35:48.312Z,99.99
2017-09-10T04:36:57.140Z,99.99
2017-09-10T04:38:05.991Z,99.99
2017-09-10T04:39:14.816Z,99.99
2017-09-10T04:40:23.641Z,99.99
2017-09-10T04:41:32.473Z,99.99
2017-09-10T04:42:41.623Z,99.99
2017-09-10T04:43:50.452Z,99.99
2017-09-10T04:44:59.281Z,99.99
2017-09-10T04:46:08.109Z,99.99
2017-09-10T04:47:16.934Z,99.99
2017-09-10T04:48:25.769Z,99.99
2017-09-10T04:49:34.593Z,99.99
2017-09-10T04:50:43.425Z,99.99
2017-09-10T04:51:52.250Z,99.99
2017-09-10T04:53:01.082Z,99.99
2017-09-10T04:54:09.912Z,99.99
2017-09-10T04:55:18.741Z,99.99
2017-09-10T04:56:27.567Z,99.99
2017-09-10T04:57:36.401Z,99.99
2017-09-10T04:58:45.229Z,99.99
2017-09-10T04:59:54.058Z,99.99
2017-09-10T05:01:02.886Z,99.99
2017-09-10T05:02:11.715Z,99.99
2017-09-10T05:03:20.539Z,99.99
2017-09-10T05:04:29.370Z,99.99
2017-09-10T05:05:38.194Z,99.99
2017-09-10T05:06:47.025Z,99.99
2017-09-10T05:07:55.851Z,99.99
2017-09-10T05:09:04.677Z,99.99
2017-09-10T05:10:13.502Z,99.99
2017-09-10T05:11:22.342Z,99.99
2017-09-10T05:12:31.167Z,99.99
2017-09-10T05:13:40.000Z,99.99
2017-09-10T05:14:48.827Z,99.99
2017-09-10T05:15:57.659Z,99.99
2017-09-10T05:17:06.488Z,99.99
2017-09-10T05:18:15.319Z,99.99
2017-09-10T05:19:24.140Z,99.99
2017-09-10T05:20:32.973Z,99.99
2017-09-10T05:21:41.805Z,99.99
2017-09-10T05:22:50.628Z,99.99
2017-09-10T05:23:59.455Z,99.99
2017-09-10T05:25:08.289Z,99.99
2017-09-10T05:26:17.114Z,99.99
2017-09-10T05:27:25.952Z,99.99
2017-09-10T05:28:34.781Z,99.99
2017-09-10T05:29:43.606Z,99.99
2017-09-10T05:30:52.438Z,99.99
2017-09-10T05:32:01.270Z,99.99
2017-09-10T05:33:10.103Z,99.99
2017-09-10T05:34:18.929Z,99.99
2017-09-10T05:35:27.756Z,99.99
2017-09-10T05:36:36.579Z,99.99
2017-09-10T05:37:45.403Z,99.99
2017-09-10T05:38:54.231Z,99.99
2017-09-10T05:40:03.061Z,99.99
2017-09-10T05:41:11.888Z,99.99
2017-09-10T05:42:20.716Z,99.99
2017-09-10T05:43:29.546Z,99.99
2017-09-10T05:44:38.374Z,99.99
2017-09-10T05:45:47.203Z,99.99
2017-09-10T05:46:56.035Z,99.99
2017-09-10T05:48:04.862Z,99.99
2017-09-10T05:49:13.692Z,99.99
2017-09-10T05:50:22.880Z,99.99
2017-09-10T05:51:31.711Z,99.99
2017-09-10T05:52:40.540Z,99.99
2017-09-10T05:53:49.373Z,99.99
2017-09-10T05:54:58.205Z,99.99
2017-09-10T05:56:07.030Z,99.99
2017-09-10T05:57:15.888Z,99.99
2017-09-10T05:58:24.679Z,99.99
2017-09-10T05:59:33.515Z,99.99
2017-09-10T06:00:42.342Z,99.99
2017-09-10T06:01:51.169Z,99.99
2017-09-10T06:02:59.997Z,99.99
2017-09-10T06:04:08.826Z,99.99
2017-09-10T06:05:17.648Z,99.99
2017-09-10T06:06:26.477Z,99.99
2017-09-10T06:07:35.303Z,99.99
2017-09-10T06:08:44.134Z,99.99
2017-09-10T06:09:52.958Z,99.99
2017-09-10T06:11:01.825Z,99.99
2017-09-10T06:12:10.615Z,99.99
2017-09-10T06:13:19.768Z,99.99
2017-09-10T06:14:28.594Z,99.99
2017-09-10T06:15:37.424Z,99.99
2017-09-10T06:16:46.251Z,99.99
2017-09-10T06:17:55.077Z,99.99
2017-09-10T06:19:03.907Z,99.99
2017-09-10T06:20:12.739Z,99.99
2017-09-10T06:21:21.598Z,99.99
2017-09-10T06:22:30.395Z,99.99
2017-09-10T06:23:39.220Z,99.99
2017-09-10T06:24:48.052Z,99.99
2017-09-10T06:25:56.880Z,99.99
2017-09-10T06:27:05.710Z,99.99
2017-09-10T06:28:14.539Z,99.99
2017-09-10T06:29:23.367Z,99.99
2017-09-10T06:30:32.192Z,99.99
2017-09-10T06:31:41.024Z,99.99
2017-09-10T06:32:49.853Z,99.99
2017-09-10T06:33:58.681Z,99.99
2017-09-10T06:35:07.511Z,99.99
2017-09-10T06:36:16.338Z,99.99
2017-09-10T06:37:25.164Z,99.99
2017-09-10T06:38:33.999Z,99.99
2017-09-10T06:39:42.826Z,99.99
2017-09-10T06:40:51.669Z,99.99
2017-09-10T06:42:00.489Z,99.99
2017-09-10T06:43:09.317Z,99.99
2017-09-10T06:44:18.137Z,99.99
2017-09-10T06:45:26.973Z,99.99
2017-09-10T06:46:35.802Z,99.99
2017-09-10T06:47:44.629Z,99.99
2017-09-10T06:48:53.460Z,99.99
2017-09-10T06:50:02.289Z,99.99
2017-09-10T06:51:11.117Z,99.99
2017-09-10T06:52:19.956Z,99.99
2017-09-10T06:53:28.784Z,99.99
2017-09-10T06:54:37.616Z,99.99
2017-09-10T06:55:46.442Z,99.99
2017-09-10T06:56:55.272Z,99.99
2017-09-10T06:58:04.099Z,99.99
2017-09-10T06:59:12.934Z,99.99
2017-09-10T07:00:21.761Z,99.99
2017-09-10T07:01:30.916Z,99.99
2017-09-10T07:02:39.759Z,99.99
2017-09-10T07:03:48.577Z,99.99
2017-09-10T07:04:57.724Z,99.99
2017-09-10T07:06:06.552Z,99.99
2017-09-10T07:07:15.707Z,99.99
2017-09-10T07:08:24.534Z,99.99
2017-09-10T07:09:33.359Z,99.99
2017-09-10T07:10:42.193Z,99.99
2017-09-10T07:11:51.022Z,99.99
2017-09-10T07:12:59.847Z,99.99
2017-09-10T07:14:08.676Z,99.99
2017-09-10T07:15:17.507Z,99.99
2017-09-10T07:16:26.334Z,99.99
2017-09-10T07:17:35.165Z,99.99
2017-09-10T07:18:43.992Z,99.99
2017-09-10T07:19:52.823Z,99.99
2017-09-10T07:21:01.656Z,99.99
2017-09-10T07:22:10.815Z,99.99
2017-09-10T07:23:19.650Z,99.99
2017-09-10T07:24:28.475Z,99.99
2017-09-10T07:25:37.304Z,99.99
2017-09-10T07:26:46.137Z,99.99
2017-09-10T07:27:54.968Z,99.99
2017-09-10T07:29:03.798Z,99.99
2017-09-10T07:30:12.627Z,99.99
2017-09-10T07:31:21.454Z,99.99
2017-09-10T07:32:30.290Z,99.99
2017-09-10T07:33:39.118Z,99.99
2017-09-10T07:34:47.942Z,99.99
2017-09-10T07:35:56.769Z,99.99
2017-09-10T07:37:05.604Z,99.99
2017-09-10T07:38:14.429Z,99.99
2017-09-10T07:39:23.582Z,99.99
2017-09-10T07:40:32.414Z,99.99
2017-09-10T07:41:41.242Z,99.99
2017-09-10T07:42:50.070Z,99.99
2017-09-10T07:43:58.901Z,99.99
2017-09-10T07:45:07.735Z,99.99
2017-09-10T07:46:16.562Z,99.99
2017-09-10T07:47:25.393Z,99.99
2017-09-10T07:48:34.216Z,99.99
2017-09-10T07:49:43.051Z,99.99
2017-09-10T07:50:51.883Z,99.99
2017-09-10T07:52:00.710Z,99.99
2017-09-10T07:53:09.545Z,99.99
2017-09-10T07:54:18.373Z,99.99
2017-09-10T07:55:27.234Z,99.99
2017-09-10T07:56:36.030Z,99.99
2017-09-10T07:57:44.862Z,99.99
2017-09-10T07:58:53.688Z,99.99
2017-09-10T08:00:02.513Z,99.99
2017-09-10T08:01:11.345Z,99.99
2017-09-10T08:02:20.176Z,99.99
2017-09-10T08:03:29.328Z,99.99
2017-09-10T08:04:38.158Z,99.99
2017-09-10T08:05:46.991Z,99.99
2017-09-10T08:06:55.821Z,99.99
2017-09-10T08:08:04.651Z,99.99
2017-09-10T08:09:13.480Z,99.99
2017-09-10T08:10:22.313Z,99.99
2017-09-10T08:11:31.144Z,99.99
2017-09-10T08:12:39.973Z,99.99
2017-09-10T08:13:48.798Z,99.99
2017-09-10T08:14:57.632Z,99.99
2017-09-10T08:16:06.461Z,99.99
2017-09-10T08:17:15.297Z,99.99
2017-09-10T08:18:24.129Z,99.99
2017-09-10T08:19:32.955Z,99.99
2017-09-10T08:20:41.786Z,99.99
2017-09-10T08:21:50.620Z,99.99
2017-09-10T08:22:59.451Z,99.99
2017-09-10T08:24:08.281Z,99.99
2017-09-10T08:25:17.111Z,99.99
2017-09-10T08:26:25.940Z,99.99
2017-09-10T08:27:34.772Z,99.99
2017-09-10T08:28:43.610Z,99.99
2017-09-10T08:29:52.435Z,99.99
2017-09-10T08:31:01.270Z,99.99
2017-09-10T08:32:10.097Z,99.99
2017-09-10T08:33:18.931Z,99.99
2017-09-10T08:34:27.758Z,99.99
2017-09-10T08:35:36.590Z,99.99
2017-09-10T08:36:45.423Z,99.99
2017-09-10T08:37:54.250Z,99.99
2017-09-10T08:39:03.088Z,99.99
2017-09-10T08:40:12.241Z,99.99
2017-09-10T08:41:21.072Z,99.99
2017-09-10T08:42:29.904Z,99.99
2017-09-10T08:43:38.730Z,99.99
2017-09-10T08:44:47.561Z,99.99
2017-09-10T08:45:56.392Z,99.99
2017-09-10T08:47:05.224Z,99.99
2017-09-10T08:48:14.051Z,99.99
2017-09-10T08:49:22.884Z,99.99
2017-09-10T08:50:31.713Z,99.99
2017-09-10T08:51:40.543Z,99.99
2017-09-10T08:52:49.405Z,99.99
2017-09-10T08:53:58.205Z,99.99
2017-09-10T08:55:07.032Z,99.99
2017-09-10T08:56:15.863Z,99.99
2017-09-10T08:57:24.698Z,99.99
2017-09-10T08:58:33.530Z,99.99
2017-09-10T08:59:42.367Z,99.99
2017-09-10T09:00:51.192Z,99.99
2017-09-10T09:02:00.016Z,99.99
2017-09-10T09:03:08.847Z,99.99
2017-09-10T09:04:17.675Z,99.99
2017-09-10T09:05:26.511Z,99.99
2017-09-10T09:06:35.341Z,99.99
2017-09-10T09:07:44.173Z,99.99
2017-09-10T09:08:53.003Z,99.99
2017-09-10T09:10:01.836Z,99.99
2017-09-10T09:11:10.669Z,99.99
2017-09-10T09:12:19.504Z,99.99
2017-09-10T09:13:28.334Z,99.99
2017-09-10T09:14:37.162Z,99.99
2017-09-10T09:15:45.995Z,99.99
2017-09-10T09:16:54.827Z,99.99
2017-09-10T09:18:03.666Z,99.99
2017-09-10T09:19:12.490Z,99.99
2017-09-10T09:20:21.324Z,99.99
2017-09-10T09:21:30.155Z,99.99
2017-09-10T09:22:39.638Z,99.99
2017-09-10T09:23:48.472Z,99.99
2017-09-10T09:24:57.624Z,99.99
2017-09-10T09:26:06.459Z,99.99
2017-09-10T09:27:15.290Z,99.99
2017-09-10T09:28:24.122Z,99.99
2017-09-10T09:29:32.952Z,99.99
2017-09-10T09:30:41.781Z,99.99
2017-09-10T09:31:50.610Z,99.99
2017-09-10T09:32:59.442Z,99.99
2017-09-10T09:34:08.276Z,99.99
2017-09-10T09:35:17.108Z,99.99
2017-09-10T09:36:25.938Z,99.99
2017-09-10T09:37:34.767Z,99.99
2017-09-10T09:38:43.592Z,99.99
2017-09-10T09:39:52.428Z,99.99
2017-09-10T09:41:01.265Z,99.99
2017-09-10T09:42:10.094Z,99.99
2017-09-10T09:43:18.923Z,99.99
2017-09-10T09:44:27.754Z,99.99
2017-09-10T09:45:36.581Z,99.99
2017-09-10T09:46:45.415Z,99.99
2017-09-10T09:47:54.249Z,99.99
2017-09-10T09:49:03.074Z,99.99
2017-09-10T09:50:11.903Z,99.99
2017-09-10T09:51:20.737Z,99.99
2017-09-10T09:52:29.570Z,99.99
2017-09-10T09:53:38.404Z,99.99
2017-09-10T09:54:47.237Z,99.99
2017-09-10T09:55:56.068Z,99.99
2017-09-10T09:57:04.895Z,99.99
2017-09-10T09:58:13.726Z,99.99
2017-09-10T09:59:22.555Z,99.99
2017-09-10T10:00:31.388Z,99.99
2017-09-10T10:01:40.227Z,99.99
2017-09-10T10:02:49.059Z,99.99
2017-09-10T10:03:57.887Z,99.83
2017-09-10T10:05:06.721Z,97.81
2017-09-10T10:06:15.549Z,96.27
2017-09-10T10:07:24.386Z,98.29
2017-09-10T10:08:33.218Z,96.08
2017-09-10T10:09:42.047Z,96.56
2017-09-10T10:10:50.878Z,95.4
2017-09-10T10:11:59.712Z,96.75
2017-09-10T10:13:08.546Z,98
2017-09-10T10:14:17.382Z,95.21
2017-09-10T10:15:26.219Z,96.75
2017-09-10T10:16:35.047Z,96.47
2017-09-10T10:17:43.883Z,97.33
2017-09-10T10:18:52.720Z,97.62
2017-09-10T10:20:01.549Z,96.47
2017-09-10T10:21:10.380Z,93.38
2017-09-10T10:22:19.207Z,91.94
2017-09-10T10:23:28.041Z,92.33
2017-09-10T10:24:36.868Z,94.06
2017-09-10T10:25:45.703Z,95.31
2017-09-10T10:26:54.538Z,94.92
2017-09-10T10:28:03.694Z,95.02
2017-09-10T10:29:12.522Z,94.83
2017-09-10T10:30:21.353Z,93.58
2017-09-10T10:31:30.184Z,93.58
2017-09-10T10:32:39.020Z,93.68
2017-09-10T10:33:47.850Z,93.87
2017-09-10T10:34:56.685Z,92.23
2017-09-10T10:36:05.517Z,90.21
2017-09-10T10:37:14.352Z,91.46
2017-09-10T10:38:23.180Z,91.17
2017-09-10T10:39:32.038Z,91.75
2017-09-10T10:40:40.844Z,91.17
2017-09-10T10:41:49.675Z,91.66
2017-09-10T10:42:58.508Z,89.64
2017-09-10T10:44:07.340Z,90.21
2017-09-10T10:45:16.177Z,88.96
2017-09-10T10:46:25.006Z,87.81
2017-09-10T10:47:33.844Z,87.04
2017-09-10T10:48:42.679Z,86.41
2017-09-10T10:49:51.514Z,83.91
2017-09-10T10:51:00.346Z,81.88
2017-09-10T10:52:09.176Z,81.21
2017-09-10T10:53:18.014Z,79.82
2017-09-10T10:54:26.848Z,79.44
2017-09-10T10:55:36.011Z,77.71
2017-09-10T10:56:44.846Z,78.09
2017-09-10T10:57:53.676Z,78.09
2017-09-10T10:59:02.509Z,76.56
2017-09-10T11:00:11.660Z,76.94
2017-09-10T11:01:20.494Z,76.65
2017-09-10T11:02:29.326Z,76.84
2017-09-10T11:03:38.162Z,76.75
2017-09-10T11:04:46.989Z,76.56
2017-09-10T11:05:55.853Z,76.46
2017-09-10T11:07:04.656Z,75.88
2017-09-10T11:08:13.488Z,75.69
2017-09-10T11:09:22.321Z,74.25
2017-09-10T11:10:31.153Z,74.05
2017-09-10T11:11:39.985Z,73.86
2017-09-10T11:12:48.819Z,73.96
2017-09-10T11:13:57.655Z,73.86
2017-09-10T11:15:06.481Z,73.47
2017-09-10T11:16:15.313Z,73.47
2017-09-10T11:17:24.144Z,73.47
2017-09-10T11:18:32.977Z,71.94
2017-09-10T11:19:41.811Z,71.46
2017-09-10T11:20:50.642Z,72.09
2017-09-10T11:21:59.476Z,70.84
2017-09-10T11:23:08.309Z,70.68
2017-09-10T11:24:17.145Z,70.4
2017-09-10T11:25:25.976Z,70.56
2017-09-10T11:26:34.805Z,70.11
2017-09-10T11:27:43.636Z,70.11
2017-09-10T11:28:52.465Z,70.21
2017-09-10T11:30:01.302Z,70.65
2017-09-10T11:31:10.134Z,71.23
2017-09-10T11:32:18.965Z,71.65
2017-09-10T11:33:27.802Z,71.61
2017-09-10T11:34:36.633Z,71.52
2017-09-10T11:35:45.462Z,71.36
2017-09-10T11:36:54.299Z,70.88
2017-09-10T11:38:03.134Z,70.68
2017-09-10T11:39:11.961Z,70.59
2017-09-10T11:40:20.794Z,70.78
2017-09-10T11:41:29.626Z,70.3
2017-09-10T11:42:38.793Z,71.08
2017-09-10T11:43:47.627Z,70.88
2017-09-10T11:44:56.455Z,70.68
2017-09-10T11:46:05.291Z,70.43
2017-09-10T11:47:14.126Z,70.15
2017-09-10T11:48:22.961Z,69.85
2017-09-10T11:49:31.793Z,69.85
2017-09-10T11:50:40.629Z,70.24
2017-09-10T11:51:49.463Z,70.05
2017-09-10T11:52:58.294Z,69.47
2017-09-10T11:54:07.130Z,69.09
2017-09-10T11:55:15.963Z,69.67
2017-09-10T11:56:24.795Z,69.18
2017-09-10T11:57:33.627Z,69.67
2017-09-10T11:58:42.490Z,69.85
2017-09-10T11:59:51.290Z,69.95
2017-09-10T12:01:00.122Z,70.34
2017-09-10T12:02:08.959Z,70.43
2017-09-10T12:03:17.789Z,70.15
2017-09-10T12:04:26.618Z,69.95
2017-09-10T12:05:35.447Z,69.57
2017-09-10T12:06:44.613Z,68.99
2017-09-10T12:07:53.449Z,68.7
2017-09-10T12:09:02.611Z,68.03
2017-09-10T12:10:11.441Z,67.65
2017-09-10T12:11:20.281Z,67.65
2017-09-10T12:12:29.110Z,68.13
2017-09-10T12:13:37.944Z,68.35
2017-09-10T12:14:46.773Z,68.03
2017-09-10T12:15:55.609Z,68.54
2017-09-10T12:17:04.446Z,68.64
2017-09-10T12:18:13.278Z,68.54
2017-09-10T12:19:22.115Z,68.35
2017-09-10T12:20:30.948Z,68.54
2017-09-10T12:21:39.776Z,69.02
2017-09-10T12:22:48.611Z,68.41
2017-09-10T12:23:57.444Z,68.7
2017-09-10T12:25:06.277Z,68.6
2017-09-10T12:26:15.108Z,68.6
2017-09-10T12:27:23.945Z,68.6
2017-09-10T12:28:32.775Z,69.18
2017-09-10T12:29:41.611Z,69.57
2017-09-10T12:30:50.443Z,69.28
2017-09-10T12:31:59.279Z,69.67
2017-09-10T12:33:08.431Z,69.38
2017-09-10T12:34:17.256Z,69.67
2017-09-10T12:35:26.087Z,69.28
2017-09-10T12:36:34.920Z,69.38
2017-09-10T12:37:43.757Z,69.28
2017-09-10T12:38:52.588Z,69.57
2017-09-10T12:40:01.423Z,69.38
2017-09-10T12:41:10.254Z,69.38
2017-09-10T12:42:19.085Z,69.18
2017-09-10T12:43:27.921Z,69.47
2017-09-10T12:44:36.757Z,69.51
2017-09-10T12:45:45.588Z,68.6
2017-09-10T12:46:54.426Z,68.41
2017-09-10T12:48:03.257Z,68.6
2017-09-10T12:49:12.098Z,68.99
2017-09-10T12:50:21.249Z,68.51
2017-09-10T12:51:30.087Z,68.51
2017-09-10T12:52:38.914Z,68.51
2017-09-10T12:53:47.748Z,68.6
2017-09-10T12:54:56.576Z,68.6
2017-09-10T12:56:05.411Z,68.6
2017-09-10T12:57:14.250Z,68.6
2017-09-10T12:58:23.082Z,68.35
2017-09-10T12:59:31.916Z,68.06
2017-09-10T13:00:40.747Z,68.16
2017-09-10T13:01:49.584Z,67.58
2017-09-10T13:02:58.411Z,66.81
2017-09-10T13:04:07.244Z,67
2017-09-10T13:05:16.069Z,66.97
2017-09-10T13:06:24.905Z,67.07
2017-09-10T13:07:33.735Z,67.16
2017-09-10T13:08:42.573Z,67
2017-09-10T13:09:51.725Z,66.91
2017-09-10T13:11:00.557Z,66.81
2017-09-10T13:12:09.397Z,67.1
2017-09-10T13:13:18.225Z,66.81
2017-09-10T13:14:27.062Z,67
2017-09-10T13:15:35.893Z,66.71
2017-09-10T13:16:44.725Z,66.52
2017-09-10T13:17:53.556Z,66.04
2017-09-10T13:19:02.385Z,66.24
2017-09-10T13:20:11.230Z,66.52
2017-09-10T13:21:20.061Z,66.81
2017-09-10T13:22:28.892Z,67
2017-09-10T13:23:37.724Z,66.81
2017-09-10T13:24:46.556Z,67.77
2017-09-10T13:25:55.388Z,67.87
2017-09-10T13:27:04.221Z,66.42
2017-09-10T13:28:13.057Z,66.52
2017-09-10T13:29:21.883Z,66.3
2017-09-10T13:30:30.714Z,66.58
2017-09-10T13:31:39.546Z,66.24
2017-09-10T13:32:48.381Z,66.42
2017-09-10T13:33:57.214Z,66.33
2017-09-10T13:35:06.048Z,66.42
2017-09-10T13:36:14.876Z,66.42
2017-09-10T13:37:23.708Z,66.04
2017-09-10T13:38:32.544Z,65.94
2017-09-10T13:39:41.375Z,65.94
2017-09-10T13:40:50.212Z,66.04
2017-09-10T13:41:59.040Z,66.33
2017-09-10T13:43:07.873Z,66.14
2017-09-10T13:44:16.708Z,66.14
2017-09-10T13:45:25.536Z,66.42
2017-09-10T13:46:34.373Z,66.07
2017-09-10T13:47:43.522Z,66.14
2017-09-10T13:48:52.359Z,66.14
2017-09-10T13:50:01.186Z,65.78
2017-09-10T13:51:10.020Z,65.4
2017-09-10T13:52:18.853Z,65.3
2017-09-10T13:53:28.010Z,65.11
2017-09-10T13:54:36.843Z,65.4
2017-09-10T13:55:45.676Z,65.3
2017-09-10T13:56:54.833Z,64.82
2017-09-10T13:58:03.662Z,64.82
2017-09-10T13:59:12.503Z,64.92
2017-09-10T14:00:21.332Z,65.01
2017-09-10T14:01:30.169Z,65.3
2017-09-10T14:02:38.998Z,64.82
2017-09-10T14:03:47.829Z,64.63
2017-09-10T14:04:56.659Z,64.73
2017-09-10T14:06:05.492Z,64.73
2017-09-10T14:07:14.328Z,64.53
2017-09-10T14:08:23.486Z,64.34
2017-09-10T14:09:32.321Z,65.01
2017-09-10T14:10:41.147Z,65.2
2017-09-10T14:11:49.978Z,65.3
2017-09-10T14:12:58.810Z,64.73
2017-09-10T14:14:07.645Z,64.82
2017-09-10T14:15:16.480Z,64.82
2017-09-10T14:16:25.315Z,65.01
2017-09-10T14:17:34.151Z,64.63
2017-09-10T14:18:42.982Z,64.63
2017-09-10T14:19:51.817Z,64.73
2017-09-10T14:21:00.652Z,64.63
2017-09-10T14:22:09.484Z,64.34
2017-09-10T14:23:18.318Z,63.95
2017-09-10T14:24:27.151Z,63.85
2017-09-10T14:25:35.983Z,63.57
2017-09-10T14:26:44.814Z,64.05
2017-09-10T14:27:53.651Z,64.05
2017-09-10T14:29:02.483Z,64.53
2017-09-10T14:30:11.318Z,64.25
2017-09-10T14:31:20.151Z,63.85
2017-09-10T14:32:28.978Z,63.76
2017-09-10T14:33:37.810Z,64.15
2017-09-10T14:34:46.642Z,63.85
2017-09-10T14:35:55.474Z,64.53
2017-09-10T14:37:04.309Z,64.73
2017-09-10T14:38:13.145Z,63.76
2017-09-10T14:39:21.974Z,63.76
2017-09-10T14:40:30.808Z,63.95
2017-09-10T14:41:39.646Z,63.09
2017-09-10T14:42:48.474Z,63.18
2017-09-10T14:43:57.308Z,63.28
2017-09-10T14:45:06.138Z,62.99
2017-09-10T14:46:14.974Z,63.28
2017-09-10T14:47:23.808Z,63.95